createdAt,value
2014-11-07T05:36:47.652Z,100810
2014-11-07T05:42:48.134Z,100804
2014-11-07T05:50:48.731Z,100796
2014-11-07T05:59:49.361Z,100810
2014-11-07T06:05:49.844Z,100793
2014-11-07T06:14:50.490Z,100807
2014-11-07T06:22:51.071Z,100796
2014-11-07T06:28:51.553Z,100798
2014-11-07T06:36:52.150Z,100796
2014-11-07T06:44:52.746Z,100790
2014-11-07T06:52:53.327Z,100787
2014-11-07T06:58:53.809Z,100798
2014-11-07T07:04:54.290Z,100793
2014-11-07T07:10:54.789Z,100778
2014-11-07T07:15:55.223Z,100770
2014-11-07T07:22:55.755Z,100767
2014-11-07T07:29:56.288Z,100767
2014-11-07T07:36:56.835Z,100770
2014-11-07T07:44:57.415Z,100770
2014-11-07T07:51:57.964Z,100764
2014-11-07T07:59:58.544Z,100767
2014-11-07T08:07:59.140Z,100770
2014-11-07T19:30:57.656Z,100478
2014-11-07T19:37:58.233Z,100490
2014-11-07T19:44:58.771Z,100495
2014-11-07T20:15:30.844Z,100528
2014-11-07T20:21:31.343Z,100533
2014-11-07T20:29:31.923Z,100530
2014-11-07T20:35:32.422Z,100539
2014-11-07T20:43:33.019Z,100530
2014-11-07T20:50:33.565Z,100527
2014-11-07T20:57:34.113Z,100536
2014-11-07T21:04:34.661Z,100539
2014-11-07T21:11:35.193Z,100545
2014-11-07T21:27:07.056Z,100539
2014-11-07T21:35:07.652Z,100539
2014-11-07T21:42:08.185Z,100548
2014-11-07T21:50:08.798Z,100539
2014-11-07T21:58:09.377Z,100530
2014-11-07T22:03:09.827Z,100545
2014-11-07T22:11:10.424Z,100545
2014-11-07T22:18:10.971Z,100527
2014-11-07T22:24:11.454Z,100527
2014-11-07T22:30:11.951Z,100527
2014-11-07T22:36:12.450Z,100515
2014-11-07T22:41:12.899Z,100524
2014-11-07T22:46:13.316Z,100539
2014-11-07T22:52:13.816Z,100530
2014-11-07T22:58:14.313Z,100533
2014-11-07T23:03:14.746Z,100536
2014-11-07T23:09:15.244Z,100545
2014-11-07T23:15:15.727Z,100550
2014-11-07T23:20:16.177Z,100568
2014-11-07T23:26:16.659Z,100556
2014-11-07T23:32:17.158Z,100574
2014-11-07T23:37:17.591Z,100562
2014-11-07T23:44:18.139Z,100580
2014-11-07T23:51:18.685Z,100574
2014-11-07T23:58:19.218Z,100580
